Terminal Aerodrome Forecast
Issued by NWS Charleston, WV

Current Version | Previous Version | Graphics & Text | Print | Product List | Glossary On
Versions: 1 2 3 4 5 6 7 8 9 10 11 12 13 14 15 16 17 18 19 20 21 22 23 24 25 26 27
000
FTUS41 KRLX 180500
TAFCRW
TAF
KCRW 180528Z 1806/1906 25007KT P6SM BKN070
     FM180700 29007G18KT P6SM BKN035
     FM181500 28010G17KT P6SM BKN020
     FM182300 30008G14KT P6SM OVC020
     FM190000 30006KT P6SM OVC012=

USA.gov is the U.S. government's official web portal to all federal, state and local government web resources and services.